sensor_id;sensor_type;location;lat;lon;timestamp;P1;durP1;ratioP1;P2;durP2;ratioP2
72584;SDS011;73873;40.084;32.908;2023-12-20T00:01:38;44.88;;;17.55;;
72584;SDS011;73873;40.084;32.908;2023-12-20T00:04:05;39.90;;;17.33;;
72584;SDS011;73873;40.084;32.908;2023-12-20T00:06:32;39.22;;;16.63;;
72584;SDS011;73873;40.084;32.908;2023-12-20T00:08:59;37.25;;;16.98;;
72584;SDS011;73873;40.084;32.908;2023-12-20T00:11:26;46.70;;;18.67;;
72584;SDS011;73873;40.084;32.908;2023-12-20T00:13:53;51.33;;;20.70;;
72584;SDS011;73873;40.084;32.908;2023-12-20T00:16:20;53.28;;;21.67;;
72584;SDS011;73873;40.084;32.908;2023-12-20T00:18:47;52.47;;;21.98;;
72584;SDS011;73873;40.084;32.908;2023-12-20T00:21:14;50.25;;;22.13;;
72584;SDS011;73873;40.084;32.908;2023-12-20T00:23:41;59.63;;;22.20;;
72584;SDS011;73873;40.084;32.908;2023-12-20T00:26:08;48.03;;;21.23;;
72584;SDS011;73873;40.084;32.908;2023-12-20T00:28:35;42.83;;;19.83;;
72584;SDS011;73873;40.084;32.908;2023-12-20T00:31:02;52.95;;;20.58;;
72584;SDS011;73873;40.084;32.908;2023-12-20T00:33:35;57.75;;;22.65;;
72584;SDS011;73873;40.084;32.908;2023-12-20T00:36:02;50.97;;;20.17;;
72584;SDS011;73873;40.084;32.908;2023-12-20T00:38:29;45.80;;;18.33;;
72584;SDS011;73873;40.084;32.908;2023-12-20T00:40:56;47.20;;;19.13;;
72584;SDS011;73873;40.084;32.908;2023-12-20T00:43:23;50.35;;;20.63;;
72584;SDS011;73873;40.084;32.908;2023-12-20T00:45:50;50.15;;;21.13;;
72584;SDS011;73873;40.084;32.908;2023-12-20T00:48:17;51.67;;;20.60;;
72584;SDS011;73873;40.084;32.908;2023-12-20T00:50:44;44.35;;;19.20;;
72584;SDS011;73873;40.084;32.908;2023-12-20T00:53:11;52.63;;;21.55;;
72584;SDS011;73873;40.084;32.908;2023-12-20T00:55:38;54.40;;;22.25;;
72584;SDS011;73873;40.084;32.908;2023-12-20T00:58:04;60.33;;;23.30;;
72584;SDS011;73873;40.084;32.908;2023-12-20T01:00:31;55.83;;;21.90;;
72584;SDS011;73873;40.084;32.908;2023-12-20T01:02:58;54.90;;;21.50;;
72584;SDS011;73873;40.084;32.908;2023-12-20T01:05:25;52.85;;;21.45;;
72584;SDS011;73873;40.084;32.908;2023-12-20T01:07:52;50.47;;;20.92;;
72584;SDS011;73873;40.084;32.908;2023-12-20T01:10:19;49.83;;;21.13;;
72584;SDS011;73873;40.084;32.908;2023-12-20T01:12:46;47.40;;;18.97;;
72584;SDS011;73873;40.084;32.908;2023-12-20T01:15:13;47.25;;;18.08;;
72584;SDS011;73873;40.084;32.908;2023-12-20T01:17:40;54.65;;;21.25;;
72584;SDS011;73873;40.084;32.908;2023-12-20T01:20:07;53.80;;;22.10;;
72584;SDS011;73873;40.084;32.908;2023-12-20T01:22:35;59.38;;;23.27;;
72584;SDS011;73873;40.084;32.908;2023-12-20T01:25:01;49.20;;;19.33;;
72584;SDS011;73873;40.084;32.908;2023-12-20T01:27:28;54.65;;;22.35;;
72584;SDS011;73873;40.084;32.908;2023-12-20T01:29:55;52.72;;;20.70;;
72584;SDS011;73873;40.084;32.908;2023-12-20T01:32:22;39.22;;;15.55;;
72584;SDS011;73873;40.084;32.908;2023-12-20T01:34:49;39.28;;;15.07;;
72584;SDS011;73873;40.084;32.908;2023-12-20T01:37:16;40.63;;;14.83;;
72584;SDS011;73873;40.084;32.908;2023-12-20T01:39:43;35.63;;;14.27;;
72584;SDS011;73873;40.084;32.908;2023-12-20T01:42:10;39.22;;;14.88;;
72584;SDS011;73873;40.084;32.908;2023-12-20T01:44:37;36.22;;;15.77;;
72584;SDS011;73873;40.084;32.908;2023-12-20T01:47:04;44.63;;;18.52;;
72584;SDS011;73873;40.084;32.908;2023-12-20T01:49:31;39.13;;;16.03;;
72584;SDS011;73873;40.084;32.908;2023-12-20T01:51:58;44.17;;;17.42;;
72584;SDS011;73873;40.084;32.908;2023-12-20T01:54:25;48.25;;;19.35;;
72584;SDS011;73873;40.084;32.908;2023-12-20T01:56:52;44.95;;;18.52;;
72584;SDS011;73873;40.084;32.908;2023-12-20T01:59:19;41.08;;;17.55;;
72584;SDS011;73873;40.084;32.908;2023-12-20T02:01:47;39.90;;;15.80;;
72584;SDS011;73873;40.084;32.908;2023-12-20T02:04:14;36.58;;;15.57;;
72584;SDS011;73873;40.084;32.908;2023-12-20T02:06:43;38.28;;;16.13;;
72584;SDS011;73873;40.084;32.908;2023-12-20T02:09:12;39.72;;;15.48;;
72584;SDS011;73873;40.084;32.908;2023-12-20T02:11:40;34.85;;;13.82;;
72584;SDS011;73873;40.084;32.908;2023-12-20T02:14:07;33.50;;;14.27;;
72584;SDS011;73873;40.084;32.908;2023-12-20T02:16:34;37.35;;;14.88;;
72584;SDS011;73873;40.084;32.908;2023-12-20T02:19:00;35.90;;;14.98;;
72584;SDS011;73873;40.084;32.908;2023-12-20T02:21:34;39.33;;;15.70;;
72584;SDS011;73873;40.084;32.908;2023-12-20T02:24:01;45.20;;;17.45;;
72584;SDS011;73873;40.084;32.908;2023-12-20T02:26:28;43.47;;;17.17;;
72584;SDS011;73873;40.084;32.908;2023-12-20T02:28:55;40.42;;;17.27;;
72584;SDS011;73873;40.084;32.908;2023-12-20T02:34:43;44.17;;;19.02;;
72584;SDS011;73873;40.084;32.908;2023-12-20T02:37:11;38.25;;;16.50;;
72584;SDS011;73873;40.084;32.908;2023-12-20T02:39:38;54.70;;;20.20;;
72584;SDS011;73873;40.084;32.908;2023-12-20T02:42:05;42.15;;;17.38;;
72584;SDS011;73873;40.084;32.908;2023-12-20T02:44:32;48.65;;;19.20;;
72584;SDS011;73873;40.084;32.908;2023-12-20T02:50:20;52.03;;;21.75;;
72584;SDS011;73873;40.084;32.908;2023-12-20T02:52:47;46.87;;;18.37;;
72584;SDS011;73873;40.084;32.908;2023-12-20T02:55:14;46.38;;;19.88;;
72584;SDS011;73873;40.084;32.908;2023-12-20T02:57:41;45.70;;;18.88;;
72584;SDS011;73873;40.084;32.908;2023-12-20T03:00:09;48.10;;;18.33;;
72584;SDS011;73873;40.084;32.908;2023-12-20T03:02:36;36.90;;;16.48;;
72584;SDS011;73873;40.084;32.908;2023-12-20T03:05:03;43.17;;;17.00;;
72584;SDS011;73873;40.084;32.908;2023-12-20T03:07:30;39.33;;;16.90;;
72584;SDS011;73873;40.084;32.908;2023-12-20T03:09:57;41.65;;;17.65;;
72584;SDS011;73873;40.084;32.908;2023-12-20T03:12:44;48.67;;;20.27;;
72584;SDS011;73873;40.084;32.908;2023-12-20T03:15:11;46.20;;;18.40;;
72584;SDS011;73873;40.084;32.908;2023-12-20T03:17:38;43.97;;;17.30;;
72584;SDS011;73873;40.084;32.908;2023-12-20T03:20:06;40.90;;;16.45;;
72584;SDS011;73873;40.084;32.908;2023-12-20T03:22:33;39.83;;;16.73;;
72584;SDS011;73873;40.084;32.908;2023-12-20T03:25:00;45.63;;;18.48;;
72584;SDS011;73873;40.084;32.908;2023-12-20T03:27:27;47.72;;;21.05;;
72584;SDS011;73873;40.084;32.908;2023-12-20T03:29:54;49.20;;;19.53;;
72584;SDS011;73873;40.084;32.908;2023-12-20T03:32:21;49.63;;;20.13;;
72584;SDS011;73873;40.084;32.908;2023-12-20T03:34:48;44.42;;;18.50;;
72584;SDS011;73873;40.084;32.908;2023-12-20T03:37:15;49.50;;;19.17;;
72584;SDS011;73873;40.084;32.908;2023-12-20T03:39:42;55.78;;;21.80;;
72584;SDS011;73873;40.084;32.908;2023-12-20T03:42:09;54.83;;;20.60;;
72584;SDS011;73873;40.084;32.908;2023-12-20T03:44:38;48.10;;;19.48;;
72584;SDS011;73873;40.084;32.908;2023-12-20T03:47:05;52.70;;;21.10;;
72584;SDS011;73873;40.084;32.908;2023-12-20T03:49:32;47.63;;;19.42;;
72584;SDS011;73873;40.084;32.908;2023-12-20T03:52:00;47.40;;;19.40;;
72584;SDS011;73873;40.084;32.908;2023-12-20T03:54:27;46.73;;;18.43;;
72584;SDS011;73873;40.084;32.908;2023-12-20T03:56:53;47.50;;;18.23;;
72584;SDS011;73873;40.084;32.908;2023-12-20T03:59:20;46.00;;;18.23;;
72584;SDS011;73873;40.084;32.908;2023-12-20T04:01:47;47.33;;;18.58;;
72584;SDS011;73873;40.084;32.908;2023-12-20T04:04:14;46.90;;;17.92;;
72584;SDS011;73873;40.084;32.908;2023-12-20T04:06:41;41.53;;;17.17;;
72584;SDS011;73873;40.084;32.908;2023-12-20T04:09:08;42.83;;;17.45;;
72584;SDS011;73873;40.084;32.908;2023-12-20T04:11:36;44.65;;;18.25;;
72584;SDS011;73873;40.084;32.908;2023-12-20T04:14:03;49.65;;;19.55;;
72584;SDS011;73873;40.084;32.908;2023-12-20T04:16:30;54.65;;;21.05;;
72584;SDS011;73873;40.084;32.908;2023-12-20T04:18:57;51.80;;;19.43;;
72584;SDS011;73873;40.084;32.908;2023-12-20T04:21:24;43.10;;;18.77;;
72584;SDS011;73873;40.084;32.908;2023-12-20T04:23:51;42.78;;;18.27;;
72584;SDS011;73873;40.084;32.908;2023-12-20T04:26:17;46.60;;;18.85;;
72584;SDS011;73873;40.084;32.908;2023-12-20T04:28:45;43.92;;;17.17;;
72584;SDS011;73873;40.084;32.908;2023-12-20T04:31:11;39.73;;;16.57;;
72584;SDS011;73873;40.084;32.908;2023-12-20T04:33:38;42.22;;;17.00;;
72584;SDS011;73873;40.084;32.908;2023-12-20T04:36:06;45.83;;;19.20;;
72584;SDS011;73873;40.084;32.908;2023-12-20T04:38:33;45.00;;;18.38;;
72584;SDS011;73873;40.084;32.908;2023-12-20T04:40:59;54.95;;;21.70;;
72584;SDS011;73873;40.084;32.908;2023-12-20T04:43:26;60.40;;;24.17;;
72584;SDS011;73873;40.084;32.908;2023-12-20T04:45:53;57.45;;;22.95;;
72584;SDS011;73873;40.084;32.908;2023-12-20T04:48:20;56.72;;;23.55;;
72584;SDS011;73873;40.084;32.908;2023-12-20T04:50:47;57.15;;;22.85;;
72584;SDS011;73873;40.084;32.908;2023-12-20T04:53:14;59.30;;;22.83;;
72584;SDS011;73873;40.084;32.908;2023-12-20T04:55:41;53.67;;;20.93;;
72584;SDS011;73873;40.084;32.908;2023-12-20T04:58:08;48.88;;;18.98;;
72584;SDS011;73873;40.084;32.908;2023-12-20T05:00:35;52.95;;;20.98;;
72584;SDS011;73873;40.084;32.908;2023-12-20T05:03:02;49.53;;;18.95;;
72584;SDS011;73873;40.084;32.908;2023-12-20T05:05:29;46.42;;;18.52;;
72584;SDS011;73873;40.084;32.908;2023-12-20T05:07:56;46.23;;;18.83;;
72584;SDS011;73873;40.084;32.908;2023-12-20T05:10:23;54.78;;;22.35;;
72584;SDS011;73873;40.084;32.908;2023-12-20T05:12:50;45.00;;;18.90;;
72584;SDS011;73873;40.084;32.908;2023-12-20T05:15:17;52.78;;;21.55;;
72584;SDS011;73873;40.084;32.908;2023-12-20T05:17:44;62.05;;;23.27;;
72584;SDS011;73873;40.084;32.908;2023-12-20T05:20:12;59.43;;;24.07;;
72584;SDS011;73873;40.084;32.908;2023-12-20T05:22:42;63.03;;;24.95;;
72584;SDS011;73873;40.084;32.908;2023-12-20T05:25:09;106.50;;;43.40;;
72584;SDS011;73873;40.084;32.908;2023-12-20T05:27:36;86.07;;;35.58;;
72584;SDS011;73873;40.084;32.908;2023-12-20T05:30:03;74.95;;;30.25;;
72584;SDS011;73873;40.084;32.908;2023-12-20T05:32:30;67.73;;;26.03;;
72584;SDS011;73873;40.084;32.908;2023-12-20T05:34:57;66.90;;;27.67;;
72584;SDS011;73873;40.084;32.908;2023-12-20T05:37:24;67.20;;;27.65;;
72584;SDS011;73873;40.084;32.908;2023-12-20T05:39:51;66.53;;;26.17;;
72584;SDS011;73873;40.084;32.908;2023-12-20T05:42:18;69.03;;;28.45;;
72584;SDS011;73873;40.084;32.908;2023-12-20T05:44:45;67.47;;;26.67;;
72584;SDS011;73873;40.084;32.908;2023-12-20T05:47:12;67.35;;;27.27;;
72584;SDS011;73873;40.084;32.908;2023-12-20T05:49:39;64.03;;;25.50;;
72584;SDS011;73873;40.084;32.908;2023-12-20T05:52:06;61.15;;;23.08;;
72584;SDS011;73873;40.084;32.908;2023-12-20T05:54:33;70.20;;;26.13;;
72584;SDS011;73873;40.084;32.908;2023-12-20T05:57:00;70.80;;;26.10;;
72584;SDS011;73873;40.084;32.908;2023-12-20T05:59:27;66.40;;;27.23;;
72584;SDS011;73873;40.084;32.908;2023-12-20T06:01:53;74.28;;;28.60;;
72584;SDS011;73873;40.084;32.908;2023-12-20T06:04:20;78.85;;;30.27;;
72584;SDS011;73873;40.084;32.908;2023-12-20T06:06:49;85.03;;;32.08;;
72584;SDS011;73873;40.084;32.908;2023-12-20T06:09:16;77.20;;;28.53;;
72584;SDS011;73873;40.084;32.908;2023-12-20T06:11:43;78.88;;;29.67;;
72584;SDS011;73873;40.084;32.908;2023-12-20T06:14:10;79.70;;;29.13;;
72584;SDS011;73873;40.084;32.908;2023-12-20T06:16:37;78.78;;;29.35;;
72584;SDS011;73873;40.084;32.908;2023-12-20T06:19:03;80.75;;;31.67;;
72584;SDS011;73873;40.084;32.908;2023-12-20T06:21:30;123.20;;;48.53;;
72584;SDS011;73873;40.084;32.908;2023-12-20T06:24:00;106.15;;;43.47;;
72584;SDS011;73873;40.084;32.908;2023-12-20T06:26:27;104.97;;;37.40;;
72584;SDS011;73873;40.084;32.908;2023-12-20T06:28:54;106.07;;;39.58;;
72584;SDS011;73873;40.084;32.908;2023-12-20T06:31:21;115.95;;;43.10;;
72584;SDS011;73873;40.084;32.908;2023-12-20T06:33:48;103.33;;;37.00;;
72584;SDS011;73873;40.084;32.908;2023-12-20T06:36:15;91.20;;;38.25;;
72584;SDS011;73873;40.084;32.908;2023-12-20T06:38:42;97.82;;;40.13;;
72584;SDS011;73873;40.084;32.908;2023-12-20T06:41:12;82.43;;;34.83;;
72584;SDS011;73873;40.084;32.908;2023-12-20T06:43:39;77.97;;;30.17;;
72584;SDS011;73873;40.084;32.908;2023-12-20T06:46:15;71.27;;;28.60;;
72584;SDS011;73873;40.084;32.908;2023-12-20T06:48:42;78.47;;;30.40;;
72584;SDS011;73873;40.084;32.908;2023-12-20T06:51:14;73.38;;;28.92;;
72584;SDS011;73873;40.084;32.908;2023-12-20T06:53:41;64.50;;;27.20;;
72584;SDS011;73873;40.084;32.908;2023-12-20T06:56:10;82.60;;;33.63;;
72584;SDS011;73873;40.084;32.908;2023-12-20T06:58:39;86.77;;;34.40;;
72584;SDS011;73873;40.084;32.908;2023-12-20T07:01:10;120.90;;;47.58;;
72584;SDS011;73873;40.084;32.908;2023-12-20T07:03:38;103.88;;;39.33;;
72584;SDS011;73873;40.084;32.908;2023-12-20T07:06:05;105.88;;;38.58;;
72584;SDS011;73873;40.084;32.908;2023-12-20T07:08:33;94.88;;;37.88;;
72584;SDS011;73873;40.084;32.908;2023-12-20T07:11:00;83.30;;;32.43;;
72584;SDS011;73873;40.084;32.908;2023-12-20T07:13:27;89.65;;;37.60;;
72584;SDS011;73873;40.084;32.908;2023-12-20T07:15:54;92.53;;;35.55;;
72584;SDS011;73873;40.084;32.908;2023-12-20T07:18:21;81.95;;;33.53;;
72584;SDS011;73873;40.084;32.908;2023-12-20T07:20:48;65.70;;;28.33;;
72584;SDS011;73873;40.084;32.908;2023-12-20T07:23:15;70.53;;;29.40;;
72584;SDS011;73873;40.084;32.908;2023-12-20T07:25:42;76.13;;;32.28;;
72584;SDS011;73873;40.084;32.908;2023-12-20T07:28:08;79.32;;;33.53;;
72584;SDS011;73873;40.084;32.908;2023-12-20T07:30:35;73.63;;;31.20;;
72584;SDS011;73873;40.084;32.908;2023-12-20T07:33:02;73.15;;;31.45;;
72584;SDS011;73873;40.084;32.908;2023-12-20T07:35:30;65.23;;;28.73;;
72584;SDS011;73873;40.084;32.908;2023-12-20T07:37:57;69.63;;;29.00;;
72584;SDS011;73873;40.084;32.908;2023-12-20T07:40:24;59.70;;;24.98;;
72584;SDS011;73873;40.084;32.908;2023-12-20T07:42:51;66.65;;;27.08;;
72584;SDS011;73873;40.084;32.908;2023-12-20T07:45:18;62.17;;;25.83;;
72584;SDS011;73873;40.084;32.908;2023-12-20T07:47:45;63.57;;;24.77;;
72584;SDS011;73873;40.084;32.908;2023-12-20T07:50:12;59.15;;;23.55;;
72584;SDS011;73873;40.084;32.908;2023-12-20T07:52:39;57.78;;;22.65;;
72584;SDS011;73873;40.084;32.908;2023-12-20T07:55:06;57.38;;;25.27;;
72584;SDS011;73873;40.084;32.908;2023-12-20T07:57:33;59.67;;;25.17;;
72584;SDS011;73873;40.084;32.908;2023-12-20T08:00:00;58.23;;;23.10;;
72584;SDS011;73873;40.084;32.908;2023-12-20T08:02:27;63.03;;;24.30;;
72584;SDS011;73873;40.084;32.908;2023-12-20T08:04:54;63.00;;;24.98;;
72584;SDS011;73873;40.084;32.908;2023-12-20T08:07:21;56.90;;;23.05;;
72584;SDS011;73873;40.084;32.908;2023-12-20T08:09:48;58.88;;;24.08;;
72584;SDS011;73873;40.084;32.908;2023-12-20T08:12:15;57.50;;;23.10;;
72584;SDS011;73873;40.084;32.908;2023-12-20T08:14:44;56.28;;;23.40;;
72584;SDS011;73873;40.084;32.908;2023-12-20T08:17:11;56.28;;;24.65;;
72584;SDS011;73873;40.084;32.908;2023-12-20T08:19:38;57.00;;;23.58;;
72584;SDS011;73873;40.084;32.908;2023-12-20T08:22:05;54.67;;;22.45;;
72584;SDS011;73873;40.084;32.908;2023-12-20T08:24:32;67.53;;;25.30;;
72584;SDS011;73873;40.084;32.908;2023-12-20T08:26:58;55.95;;;25.17;;
72584;SDS011;73873;40.084;32.908;2023-12-20T08:29:25;56.25;;;23.58;;
72584;SDS011;73873;40.084;32.908;2023-12-20T08:31:53;56.17;;;23.65;;
72584;SDS011;73873;40.084;32.908;2023-12-20T08:34:20;54.13;;;23.65;;
72584;SDS011;73873;40.084;32.908;2023-12-20T08:36:47;56.50;;;22.40;;
72584;SDS011;73873;40.084;32.908;2023-12-20T08:39:14;51.40;;;20.02;;
72584;SDS011;73873;40.084;32.908;2023-12-20T08:41:41;49.22;;;19.73;;
72584;SDS011;73873;40.084;32.908;2023-12-20T08:44:08;52.22;;;19.92;;
72584;SDS011;73873;40.084;32.908;2023-12-20T08:46:35;47.60;;;19.42;;
72584;SDS011;73873;40.084;32.908;2023-12-20T08:49:03;47.00;;;20.60;;
72584;SDS011;73873;40.084;32.908;2023-12-20T08:51:31;49.97;;;19.70;;
72584;SDS011;73873;40.084;32.908;2023-12-20T08:53:58;46.20;;;19.77;;
72584;SDS011;73873;40.084;32.908;2023-12-20T08:56:25;50.10;;;21.92;;
72584;SDS011;73873;40.084;32.908;2023-12-20T08:58:51;50.20;;;21.90;;
72584;SDS011;73873;40.084;32.908;2023-12-20T09:01:19;52.83;;;20.63;;
72584;SDS011;73873;40.084;32.908;2023-12-20T09:03:46;49.55;;;20.38;;
72584;SDS011;73873;40.084;32.908;2023-12-20T09:06:13;52.15;;;22.15;;
72584;SDS011;73873;40.084;32.908;2023-12-20T09:08:40;49.33;;;21.55;;
72584;SDS011;73873;40.084;32.908;2023-12-20T09:11:07;46.67;;;21.52;;
72584;SDS011;73873;40.084;32.908;2023-12-20T09:13:34;53.27;;;20.30;;
72584;SDS011;73873;40.084;32.908;2023-12-20T09:16:02;47.45;;;19.92;;
72584;SDS011;73873;40.084;32.908;2023-12-20T09:18:29;50.97;;;19.15;;
72584;SDS011;73873;40.084;32.908;2023-12-20T09:20:56;56.38;;;21.58;;
72584;SDS011;73873;40.084;32.908;2023-12-20T09:23:23;48.33;;;20.58;;
72584;SDS011;73873;40.084;32.908;2023-12-20T09:25:50;51.03;;;21.30;;
72584;SDS011;73873;40.084;32.908;2023-12-20T09:28:21;49.55;;;20.85;;
72584;SDS011;73873;40.084;32.908;2023-12-20T09:30:48;51.47;;;20.60;;
72584;SDS011;73873;40.084;32.908;2023-12-20T09:33:15;58.92;;;23.35;;
72584;SDS011;73873;40.084;32.908;2023-12-20T09:35:42;53.45;;;22.52;;
72584;SDS011;73873;40.084;32.908;2023-12-20T09:38:09;56.13;;;21.93;;
72584;SDS011;73873;40.084;32.908;2023-12-20T09:40:36;54.20;;;22.83;;
72584;SDS011;73873;40.084;32.908;2023-12-20T09:43:11;57.83;;;23.40;;
72584;SDS011;73873;40.084;32.908;2023-12-20T09:45:41;52.05;;;22.15;;
72584;SDS011;73873;40.084;32.908;2023-12-20T09:48:12;54.72;;;24.15;;
72584;SDS011;73873;40.084;32.908;2023-12-20T09:50:39;60.03;;;22.77;;
72584;SDS011;73873;40.084;32.908;2023-12-20T09:53:07;61.28;;;24.98;;
72584;SDS011;73873;40.084;32.908;2023-12-20T09:55:36;55.38;;;24.00;;
72584;SDS011;73873;40.084;32.908;2023-12-20T09:58:04;52.58;;;23.42;;
72584;SDS011;73873;40.084;32.908;2023-12-20T10:00:31;58.53;;;24.58;;
72584;SDS011;73873;40.084;32.908;2023-12-20T10:02:59;58.43;;;24.50;;
72584;SDS011;73873;40.084;32.908;2023-12-20T10:05:30;57.67;;;23.92;;
72584;SDS011;73873;40.084;32.908;2023-12-20T10:07:59;62.33;;;25.98;;
72584;SDS011;73873;40.084;32.908;2023-12-20T10:10:28;56.92;;;23.10;;
72584;SDS011;73873;40.084;32.908;2023-12-20T10:13:10;50.95;;;24.23;;
72584;SDS011;73873;40.084;32.908;2023-12-20T10:15:39;49.80;;;22.93;;
72584;SDS011;73873;40.084;32.908;2023-12-20T10:18:06;51.22;;;23.05;;
72584;SDS011;73873;40.084;32.908;2023-12-20T10:20:33;52.15;;;23.30;;
72584;SDS011;73873;40.084;32.908;2023-12-20T10:23:00;47.00;;;22.45;;
72584;SDS011;73873;40.084;32.908;2023-12-20T10:25:27;49.08;;;22.52;;
72584;SDS011;73873;40.084;32.908;2023-12-20T10:28:16;48.77;;;21.57;;
72584;SDS011;73873;40.084;32.908;2023-12-20T10:30:43;52.83;;;22.75;;
72584;SDS011;73873;40.084;32.908;2023-12-20T10:33:11;47.42;;;21.38;;
72584;SDS011;73873;40.084;32.908;2023-12-20T10:35:38;43.08;;;19.45;;
72584;SDS011;73873;40.084;32.908;2023-12-20T10:38:11;51.88;;;23.33;;
72584;SDS011;73873;40.084;32.908;2023-12-20T10:40:39;46.47;;;22.10;;
72584;SDS011;73873;40.084;32.908;2023-12-20T10:43:06;49.75;;;22.10;;
72584;SDS011;73873;40.084;32.908;2023-12-20T10:45:35;51.25;;;22.02;;
72584;SDS011;73873;40.084;32.908;2023-12-20T10:48:02;48.17;;;20.85;;
72584;SDS011;73873;40.084;32.908;2023-12-20T10:50:30;50.58;;;21.38;;
72584;SDS011;73873;40.084;32.908;2023-12-20T10:52:58;37.17;;;16.53;;
72584;SDS011;73873;40.084;32.908;2023-12-20T10:55:26;39.20;;;16.55;;
72584;SDS011;73873;40.084;32.908;2023-12-20T10:57:57;43.08;;;19.40;;
72584;SDS011;73873;40.084;32.908;2023-12-20T11:00:46;35.08;;;16.65;;
72584;SDS011;73873;40.084;32.908;2023-12-20T11:03:17;51.92;;;22.95;;
72584;SDS011;73873;40.084;32.908;2023-12-20T11:05:50;43.37;;;19.93;;
72584;SDS011;73873;40.084;32.908;2023-12-20T11:08:39;52.88;;;22.52;;
72584;SDS011;73873;40.084;32.908;2023-12-20T11:14:05;47.00;;;20.27;;
72584;SDS011;73873;40.084;32.908;2023-12-20T11:16:37;43.60;;;20.88;;
72584;SDS011;73873;40.084;32.908;2023-12-20T11:19:17;50.37;;;21.37;;
72584;SDS011;73873;40.084;32.908;2023-12-20T11:21:45;47.90;;;21.25;;
72584;SDS011;73873;40.084;32.908;2023-12-20T11:24:13;47.90;;;20.52;;
72584;SDS011;73873;40.084;32.908;2023-12-20T11:26:46;37.58;;;17.95;;
72584;SDS011;73873;40.084;32.908;2023-12-20T11:29:33;40.47;;;18.15;;
72584;SDS011;73873;40.084;32.908;2023-12-20T11:32:04;40.20;;;19.23;;
72584;SDS011;73873;40.084;32.908;2023-12-20T11:34:51;45.40;;;19.77;;
72584;SDS011;73873;40.084;32.908;2023-12-20T11:37:20;41.03;;;19.08;;
72584;SDS011;73873;40.084;32.908;2023-12-20T11:40:22;36.83;;;17.00;;
72584;SDS011;73873;40.084;32.908;2023-12-20T11:42:42;37.95;;;16.75;;
72584;SDS011;73873;40.084;32.908;2023-12-20T11:45:16;38.87;;;17.20;;
72584;SDS011;73873;40.084;32.908;2023-12-20T11:47:49;38.58;;;17.42;;
72584;SDS011;73873;40.084;32.908;2023-12-20T11:50:17;32.50;;;14.75;;
72584;SDS011;73873;40.084;32.908;2023-12-20T11:52:45;31.80;;;14.57;;
72584;SDS011;73873;40.084;32.908;2023-12-20T11:55:12;37.90;;;16.77;;
72584;SDS011;73873;40.084;32.908;2023-12-20T11:57:39;34.53;;;16.60;;
72584;SDS011;73873;40.084;32.908;2023-12-20T12:00:06;38.28;;;17.55;;
72584;SDS011;73873;40.084;32.908;2023-12-20T12:02:33;38.88;;;17.63;;
72584;SDS011;73873;40.084;32.908;2023-12-20T12:05:00;39.75;;;16.63;;
72584;SDS011;73873;40.084;32.908;2023-12-20T12:07:27;33.60;;;15.20;;
72584;SDS011;73873;40.084;32.908;2023-12-20T12:09:54;33.77;;;15.60;;
72584;SDS011;73873;40.084;32.908;2023-12-20T12:12:21;33.00;;;15.45;;
72584;SDS011;73873;40.084;32.908;2023-12-20T12:14:49;36.95;;;15.98;;
72584;SDS011;73873;40.084;32.908;2023-12-20T12:17:16;35.30;;;15.95;;
72584;SDS011;73873;40.084;32.908;2023-12-20T12:19:43;33.40;;;15.35;;
72584;SDS011;73873;40.084;32.908;2023-12-20T12:22:11;40.97;;;16.67;;
72584;SDS011;73873;40.084;32.908;2023-12-20T12:24:42;36.60;;;16.92;;
72584;SDS011;73873;40.084;32.908;2023-12-20T12:27:10;39.42;;;18.13;;
72584;SDS011;73873;40.084;32.908;2023-12-20T12:29:38;40.08;;;17.45;;
72584;SDS011;73873;40.084;32.908;2023-12-20T12:32:06;40.78;;;17.52;;
72584;SDS011;73873;40.084;32.908;2023-12-20T12:34:34;37.13;;;17.10;;
72584;SDS011;73873;40.084;32.908;2023-12-20T12:37:03;37.55;;;16.08;;
72584;SDS011;73873;40.084;32.908;2023-12-20T12:39:31;35.47;;;16.15;;
72584;SDS011;73873;40.084;32.908;2023-12-20T12:41:57;35.50;;;15.40;;
72584;SDS011;73873;40.084;32.908;2023-12-20T12:44:24;38.33;;;15.93;;
72584;SDS011;73873;40.084;32.908;2023-12-20T12:46:52;34.53;;;15.53;;
72584;SDS011;73873;40.084;32.908;2023-12-20T12:49:19;36.35;;;16.55;;
72584;SDS011;73873;40.084;32.908;2023-12-20T12:51:47;34.05;;;15.38;;
72584;SDS011;73873;40.084;32.908;2023-12-20T12:54:14;31.40;;;14.52;;
72584;SDS011;73873;40.084;32.908;2023-12-20T12:56:41;33.65;;;15.38;;
72584;SDS011;73873;40.084;32.908;2023-12-20T12:59:09;35.70;;;15.60;;
72584;SDS011;73873;40.084;32.908;2023-12-20T13:01:36;32.30;;;13.70;;
72584;SDS011;73873;40.084;32.908;2023-12-20T13:04:03;33.35;;;14.43;;
72584;SDS011;73873;40.084;32.908;2023-12-20T13:06:30;28.20;;;13.52;;
72584;SDS011;73873;40.084;32.908;2023-12-20T13:08:57;31.13;;;12.07;;
72584;SDS011;73873;40.084;32.908;2023-12-20T13:11:24;29.50;;;12.33;;
72584;SDS011;73873;40.084;32.908;2023-12-20T13:13:51;33.63;;;13.65;;
72584;SDS011;73873;40.084;32.908;2023-12-20T13:16:18;33.85;;;14.73;;
72584;SDS011;73873;40.084;32.908;2023-12-20T13:18:45;34.10;;;14.60;;
72584;SDS011;73873;40.084;32.908;2023-12-20T13:21:12;36.05;;;15.60;;
72584;SDS011;73873;40.084;32.908;2023-12-20T13:23:39;37.37;;;14.97;;
72584;SDS011;73873;40.084;32.908;2023-12-20T13:26:06;33.80;;;14.55;;
72584;SDS011;73873;40.084;32.908;2023-12-20T13:28:33;26.77;;;12.73;;
72584;SDS011;73873;40.084;32.908;2023-12-20T13:31:01;31.25;;;14.63;;
72584;SDS011;73873;40.084;32.908;2023-12-20T13:33:28;37.38;;;15.15;;
72584;SDS011;73873;40.084;32.908;2023-12-20T13:35:55;31.13;;;14.07;;
72584;SDS011;73873;40.084;32.908;2023-12-20T13:38:22;30.33;;;14.30;;
72584;SDS011;73873;40.084;32.908;2023-12-20T13:40:49;37.50;;;15.95;;
72584;SDS011;73873;40.084;32.908;2023-12-20T13:43:16;30.30;;;14.05;;
72584;SDS011;73873;40.084;32.908;2023-12-20T13:45:42;33.78;;;14.05;;
72584;SDS011;73873;40.084;32.908;2023-12-20T13:48:09;34.97;;;15.67;;
72584;SDS011;73873;40.084;32.908;2023-12-20T13:50:36;32.40;;;14.35;;
72584;SDS011;73873;40.084;32.908;2023-12-20T13:53:03;33.58;;;14.68;;
72584;SDS011;73873;40.084;32.908;2023-12-20T13:55:30;34.40;;;15.05;;
72584;SDS011;73873;40.084;32.908;2023-12-20T13:57:57;37.08;;;15.13;;
72584;SDS011;73873;40.084;32.908;2023-12-20T14:00:25;34.83;;;14.93;;
72584;SDS011;73873;40.084;32.908;2023-12-20T14:02:52;37.63;;;16.02;;
72584;SDS011;73873;40.084;32.908;2023-12-20T14:05:19;36.05;;;16.33;;
72584;SDS011;73873;40.084;32.908;2023-12-20T14:07:49;31.38;;;13.68;;
72584;SDS011;73873;40.084;32.908;2023-12-20T14:10:17;39.55;;;17.02;;
72584;SDS011;73873;40.084;32.908;2023-12-20T14:12:44;39.43;;;15.57;;
72584;SDS011;73873;40.084;32.908;2023-12-20T14:15:11;33.17;;;13.75;;
72584;SDS011;73873;40.084;32.908;2023-12-20T14:17:38;35.50;;;14.43;;
72584;SDS011;73873;40.084;32.908;2023-12-20T14:20:08;35.88;;;13.45;;
72584;SDS011;73873;40.084;32.908;2023-12-20T14:22:35;32.83;;;11.40;;